Time;durP1;ratioP1;P1;durP2;ratioP2;P2;SDS_P1;SDS_P2;PMS_P1;PMS_P2;Temp;Humidity;BMP_temperature;BMP_pressure;BME280_temperature;BME280_humidity;BME280_pressure;Samples;Min_cycle;Max_cycle;Signal;HPM_P1;HPM_P2
2021/11/14 00:01:30;;;;;;;19.97;16.53;;;12.60;71.50;;;;;;5012359;28;20489;-45
2021/11/14 00:03:56;;;;;;;20.90;17.03;;;12.40;71.80;;;;;;5012789;28;20427;-46
2021/11/14 00:06:22;;;;;;;19.13;16.30;;;12.40;72.30;;;;;;5011487;28;20389;-46
2021/11/14 00:08:48;;;;;;;19.77;16.83;;;12.50;72.10;;;;;;5012603;28;20233;-45
2021/11/14 00:11:17;;;;;;;19.63;17.53;;;12.60;71.80;;;;;;5012003;28;20230;-45
2021/11/14 00:13:44;;;;;;;21.70;18.00;;;12.70;71.30;;;;;;5012507;28;20856;-45
2021/11/14 00:16:14;;;;;;;19.47;16.20;;;12.70;71.00;;;;;;5011414;28;20784;-45
2021/11/14 00:18:41;;;;;;;21.10;17.70;;;12.70;70.90;;;;;;5010766;28;20459;-46
2021/11/14 00:21:09;;;;;;;18.47;15.90;;;12.70;70.90;;;;;;5011745;28;20491;-46
2021/11/14 00:23:36;;;;;;;18.43;16.43;;;12.70;70.70;;;;;;5012262;28;20441;-48
2021/11/14 00:26:02;;;;;;;18.10;16.20;;;12.60;71.20;;;;;;5011514;28;20818;-49
2021/11/14 00:28:28;;;;;;;18.30;15.77;;;12.50;72.00;;;;;;5012138;28;20432;-45
2021/11/14 00:30:54;;;;;;;19.90;14.03;;;12.40;72.50;;;;;;5011692;28;20456;-47
2021/11/14 00:33:20;;;;;;;17.03;15.03;;;12.40;72.60;;;;;;5012113;28;20467;-47
2021/11/14 00:35:49;;;;;;;19.47;15.27;;;12.40;73.00;;;;;;5010960;28;20202;-46
2021/11/14 00:38:14;;;;;;;17.77;14.50;;;12.30;73.00;;;;;;5012043;28;20460;-45
2021/11/14 00:40:40;;;;;;;16.57;14.63;;;12.30;73.50;;;;;;5011319;28;20531;-45
2021/11/14 00:43:06;;;;;;;20.07;15.70;;;12.40;73.10;;;;;;5011840;28;20216;-45
2021/11/14 00:45:35;;;;;;;17.00;15.27;;;12.40;72.90;;;;;;5009514;28;20638;-46
2021/11/14 00:48:01;;;;;;;17.10;15.03;;;12.50;73.00;;;;;;5011922;28;20237;-46
2021/11/14 00:50:28;;;;;;;21.63;16.53;;;12.40;74.00;;;;;;5011279;28;20432;-47
2021/11/14 00:52:54;;;;;;;17.90;15.43;;;12.40;73.90;;;;;;5010415;28;20683;-45
2021/11/14 00:55:21;;;;;;;16.83;15.03;;;12.40;73.20;;;;;;5010399;28;20439;-48
2021/11/14 00:57:47;;;;;;;16.90;15.17;;;12.50;72.90;;;;;;5011726;28;20251;-45
2021/11/14 01:00:23;;;;;;;17.93;16.10;;;12.60;72.60;;;;;;5010903;28;20475;-46
2021/11/14 01:02:49;;;;;;;17.13;14.73;;;12.70;72.20;;;;;;5011476;28;20928;-45
2021/11/14 01:05:17;;;;;;;18.20;15.70;;;12.60;72.30;;;;;;5010354;28;20958;-45
2021/11/14 01:07:43;;;;;;;19.23;15.50;;;12.40;72.40;;;;;;5011347;28;21094;-47
2021/11/14 01:10:12;;;;;;;16.10;14.40;;;12.40;72.90;;;;;;5011288;28;20905;-46
2021/11/14 01:12:38;;;;;;;19.37;16.07;;;12.50;72.90;;;;;;5010070;28;20425;-46
2021/11/14 01:15:06;;;;;;;19.53;15.97;;;12.40;72.90;;;;;;5010776;28;20493;-46
2021/11/14 01:17:38;;;;;;;19.10;15.83;;;12.50;73.20;;;;;;5011126;28;20956;-45
2021/11/14 01:20:13;;;;;;;18.03;14.83;;;12.60;72.70;;;;;;5011149;28;20432;-47
2021/11/14 01:22:40;;;;;;;20.40;16.57;;;12.60;72.70;;;;;;5011279;28;20534;-47
2021/11/14 01:25:08;;;;;;;22.60;16.17;;;12.60;72.30;;;;;;5010514;28;20822;-46
2021/11/14 01:27:33;;;;;;;18.60;15.30;;;12.70;72.50;;;;;;5011096;28;20455;-46
2021/11/14 01:29:59;;;;;;;18.30;14.90;;;12.60;72.40;;;;;;5011347;28;20800;-46
2021/11/14 01:32:25;;;;;;;21.50;15.63;;;12.60;72.60;;;;;;5010502;28;20201;-46
2021/11/14 01:34:50;;;;;;;17.33;14.97;;;12.60;72.50;;;;;;5010632;28;20198;-46
2021/11/14 01:37:19;;;;;;;18.23;15.97;;;12.60;73.00;;;;;;5010450;28;20198;-50
2021/11/14 01:39:44;;;;;;;18.03;16.17;;;12.60;72.80;;;;;;5009491;28;20222;-47
2021/11/14 01:42:10;;;;;;;17.90;16.07;;;12.70;72.50;;;;;;5010311;28;20516;-47
2021/11/14 01:44:36;;;;;;;19.70;17.70;;;12.60;72.50;;;;;;5011298;28;20210;-46
2021/11/14 01:47:02;;;;;;;18.97;16.93;;;12.70;72.60;;;;;;5010902;28;20661;-48
2021/11/14 01:49:28;;;;;;;21.37;18.40;;;12.70;72.40;;;;;;5010970;28;20205;-46
2021/11/14 01:51:53;;;;;;;19.03;16.03;;;12.60;72.40;;;;;;5010399;28;20199;-47
2021/11/14 01:54:20;;;;;;;18.63;15.90;;;12.60;72.50;;;;;;5014750;28;20786;-45
2021/11/14 01:56:47;;;;;;;19.13;16.70;;;12.60;72.50;;;;;;5014274;28;20233;-45
2021/11/14 01:59:13;;;;;;;20.00;16.37;;;12.30;73.20;;;;;;5015010;28;20424;-47
2021/11/14 02:01:39;;;;;;;18.77;15.10;;;12.30;74.10;;;;;;5014019;28;20492;-49
2021/11/14 02:04:06;;;;;;;16.70;14.90;;;12.20;74.20;;;;;;5014878;28;20463;-45
2021/11/14 02:06:33;;;;;;;20.83;15.87;;;12.20;74.40;;;;;;5012716;28;20580;-46
2021/11/14 02:08:59;;;;;;;17.10;15.20;;;12.40;74.10;;;;;;5013166;28;21086;-45
2021/11/14 02:11:26;;;;;;;19.63;16.33;;;12.40;73.70;;;;;;5014352;28;20440;-45
2021/11/14 02:13:52;;;;;;;16.47;14.73;;;12.50;73.60;;;;;;5014714;28;20429;-46
2021/11/14 02:16:23;;;;;;;17.50;15.63;;;12.50;73.30;;;;;;5013766;28;20429;-47
2021/11/14 02:18:49;;;;;;;18.53;16.50;;;12.60;73.10;;;;;;5014538;28;20425;-46
2021/11/14 02:21:15;;;;;;;17.23;15.43;;;12.70;72.70;;;;;;5013739;28;20546;-45
2021/11/14 02:23:41;;;;;;;19.60;16.60;;;12.70;72.40;;;;;;5014378;28;20804;-45
2021/11/14 02:26:07;;;;;;;18.57;16.50;;;12.70;72.40;;;;;;5013689;28;20425;-49
2021/11/14 02:28:34;;;;;;;18.67;15.60;;;12.70;72.40;;;;;;5014329;28;20640;-50
2021/11/14 02:31:00;;;;;;;28.33;25.07;;;12.80;72.00;;;;;;5013965;28;20244;-50
2021/11/14 02:33:27;;;;;;;27.60;24.40;;;12.70;72.20;;;;;;5012796;28;20429;-49
2021/11/14 02:35:57;;;;;;;27.23;23.43;;;12.70;73.30;;;;;;5013179;28;20786;-50
2021/11/14 02:38:23;;;;;;;21.30;17.60;;;12.80;72.50;;;;;;5013946;28;20841;-48
2021/11/14 02:40:51;;;;;;;18.40;15.90;;;12.80;72.30;;;;;;5013555;28;20532;-50
2021/11/14 02:43:17;;;;;;;20.50;15.07;;;12.80;72.40;;;;;;5014193;28;20825;-50
2021/11/14 02:45:44;;;;;;;18.90;16.23;;;12.70;72.20;;;;;;5013233;28;20787;-50
2021/11/14 02:48:11;;;;;;;17.57;15.73;;;12.90;72.00;;;;;;5013808;28;20507;-49
2021/11/14 02:50:37;;;;;;;21.73;15.50;;;12.90;71.80;;;;;;5013408;28;20870;-50
2021/11/14 02:53:05;;;;;;;21.27;18.83;;;12.90;71.70;;;;;;5014183;28;20425;-49
2021/11/14 02:55:34;;;;;;;18.90;16.27;;;12.90;71.50;;;;;;5013587;28;20429;-50
2021/11/14 02:58:00;;;;;;;17.60;14.27;;;13.00;71.40;;;;;;5013806;28;20929;-50
2021/11/14 03:00:43;;;;;;;18.30;15.00;;;12.90;71.30;;;;;;5011754;28;20948;-49
2021/11/14 03:03:08;;;;;;;16.27;14.57;;;13.00;71.40;;;;;;5014064;28;20846;-46
2021/11/14 03:05:35;;;;;;;19.00;14.20;;;13.10;70.90;;;;;;5011825;28;20422;-48
2021/11/14 03:08:01;;;;;;;16.97;14.63;;;13.10;70.50;;;;;;5013504;28;20587;-50
2021/11/14 03:10:29;;;;;;;17.70;15.93;;;13.20;70.60;;;;;;5013032;28;20433;-46
2021/11/14 03:13:00;;;;;;;18.80;15.27;;;13.10;70.60;;;;;;5013882;28;20436;-45
2021/11/14 03:15:29;;;;;;;19.00;16.67;;;13.00;70.80;;;;;;5012797;28;21001;-46
2021/11/14 03:17:55;;;;;;;16.50;14.80;;;12.90;71.30;;;;;;5013336;28;20437;-46
2021/11/14 03:20:21;;;;;;;17.50;14.77;;;13.00;71.50;;;;;;5012871;28;20441;-45
2021/11/14 03:22:47;;;;;;;18.00;14.90;;;12.90;71.40;;;;;;5013335;28;20425;-45
2021/11/14 03:25:12;;;;;;;17.43;15.27;;;12.90;71.50;;;;;;5010770;28;20409;-45
2021/11/14 03:27:38;;;;;;;18.50;16.20;;;12.80;71.80;;;;;;5013050;28;20198;-45
2021/11/14 03:30:05;;;;;;;20.17;15.87;;;12.90;71.50;;;;;;5013479;28;20190;-48
2021/11/14 03:32:31;;;;;;;16.77;15.07;;;12.90;71.10;;;;;;5013027;28;20586;-45
2021/11/14 03:34:56;;;;;;;17.87;15.87;;;12.80;72.40;;;;;;5012731;28;20425;-45
2021/11/14 03:37:22;;;;;;;19.47;15.33;;;12.90;71.70;;;;;;5012452;28;20194;-46
2021/11/14 03:39:48;;;;;;;20.23;15.90;;;13.00;71.80;;;;;;5013201;28;20205;-45
2021/11/14 03:42:15;;;;;;;18.87;14.37;;;13.10;70.90;;;;;;5012520;28;20225;-46
2021/11/14 03:44:42;;;;;;;17.87;15.03;;;13.10;70.50;;;;;;5012551;28;20499;-46
2021/11/14 03:47:09;;;;;;;17.33;15.10;;;13.10;70.40;;;;;;5012404;28;20444;-45
2021/11/14 03:49:35;;;;;;;17.77;14.53;;;13.00;70.50;;;;;;5012999;28;20528;-46
2021/11/14 03:52:07;;;;;;;17.03;13.63;;;13.00;70.80;;;;;;5010920;28;20512;-45
2021/11/14 03:54:33;;;;;;;17.17;15.20;;;13.00;70.70;;;;;;5012845;28;21190;-46
2021/11/14 03:56:58;;;;;;;18.70;14.77;;;13.10;70.30;;;;;;5012235;28;20429;-45
2021/11/14 03:59:24;;;;;;;16.50;14.60;;;13.20;70.00;;;;;;5012648;28;20623;-45
2021/11/14 04:01:49;;;;;;;18.20;14.97;;;13.10;69.60;;;;;;5012074;28;20229;-47
2021/11/14 04:04:15;;;;;;;18.63;14.83;;;13.10;69.80;;;;;;5012583;28;20198;-49
2021/11/14 04:06:41;;;;;;;17.07;14.53;;;13.10;70.10;;;;;;5012299;28;20212;-47
2021/11/14 04:09:06;;;;;;;16.13;14.40;;;13.20;69.80;;;;;;5012389;28;20712;-49
2021/11/14 04:11:32;;;;;;;17.20;14.47;;;13.10;70.10;;;;;;5012140;28;20568;-47
2021/11/14 04:13:58;;;;;;;17.70;15.90;;;13.20;69.90;;;;;;5012208;28;20208;-50
2021/11/14 04:16:24;;;;;;;16.40;14.47;;;13.30;69.70;;;;;;4993634;28;20304;-45
2021/11/14 04:18:49;;;;;;;16.13;14.43;;;13.40;69.30;;;;;;5010653;28;20189;-45
2021/11/14 04:21:15;;;;;;;15.93;13.30;;;13.40;69.10;;;;;;5011780;28;20222;-45
2021/11/14 04:23:40;;;;;;;15.87;14.17;;;13.40;68.90;;;;;;5012052;28;20654;-46
2021/11/14 04:26:07;;;;;;;16.07;14.00;;;13.40;68.70;;;;;;5011311;28;20190;-49
2021/11/14 04:28:34;;;;;;;16.00;14.07;;;13.30;69.50;;;;;;5012333;28;20186;-46
2021/11/14 04:30:59;;;;;;;14.40;12.80;;;13.20;68.90;;;;;;5011585;28;20429;-49
2021/11/14 04:33:25;;;;;;;19.00;15.30;;;13.20;69.10;;;;;;5012152;28;21065;-46
2021/11/14 04:35:51;;;;;;;14.43;12.80;;;13.30;69.00;;;;;;5010762;28;20194;-50
2021/11/14 04:38:18;;;;;;;16.80;14.07;;;13.20;69.00;;;;;;5012188;28;20933;-45
2021/11/14 04:40:44;;;;;;;15.57;13.10;;;13.20;69.10;;;;;;5011357;28;20503;-49
2021/11/14 04:43:13;;;;;;;15.77;13.57;;;13.20;68.80;;;;;;5011806;28;20428;-48
2021/11/14 04:45:39;;;;;;;15.93;13.63;;;13.20;68.80;;;;;;5009173;28;20490;-49
2021/11/14 04:48:06;;;;;;;15.83;14.17;;;13.10;69.10;;;;;;5012001;28;20424;-47
2021/11/14 04:50:32;;;;;;;16.53;13.80;;;13.20;68.90;;;;;;5011287;28;20429;-46
2021/11/14 04:52:58;;;;;;;18.87;15.27;;;13.20;68.80;;;;;;5012045;28;20518;-47
2021/11/14 04:55:24;;;;;;;15.97;13.60;;;13.30;68.60;;;;;;5010877;28;20457;-46
2021/11/14 04:57:53;;;;;;;18.47;14.67;;;13.30;68.50;;;;;;5011642;28;20996;-46
2021/11/14 05:00:50;;;;;;;15.93;14.23;;;13.40;68.30;;;;;;5011077;28;20436;-47
2021/11/14 05:03:17;;;;;;;15.50;13.70;;;13.40;68.20;;;;;;5007070;28;20441;-46
2021/11/14 05:05:42;;;;;;;15.83;13.77;;;13.40;68.20;;;;;;5010682;28;20785;-46
2021/11/14 05:08:09;;;;;;;15.70;14.00;;;13.40;68.00;;;;;;5011224;28;20563;-47
2021/11/14 05:10:35;;;;;;;14.57;13.17;;;13.40;68.10;;;;;;5010889;28;20284;-46
2021/11/14 05:13:01;;;;;;;18.17;14.30;;;13.50;68.30;;;;;;5010068;28;20490;-47
2021/11/14 05:15:28;;;;;;;16.77;15.00;;;13.50;68.00;;;;;;4992830;28;20194;-48
2021/11/14 05:17:54;;;;;;;16.00;14.27;;;13.50;67.90;;;;;;5011386;28;20436;-46
2021/11/14 05:20:19;;;;;;;16.90;14.30;;;13.60;68.00;;;;;;5010843;28;20428;-47
2021/11/14 05:22:45;;;;;;;17.03;14.33;;;13.60;67.90;;;;;;5011307;28;20428;-49
2021/11/14 05:25:11;;;;;;;15.70;13.27;;;13.60;67.70;;;;;;5010381;28;20645;-48
2021/11/14 05:27:37;;;;;;;16.07;14.00;;;13.60;67.50;;;;;;5010516;28;20194;-46
2021/11/14 05:30:05;;;;;;;16.20;14.53;;;13.60;67.50;;;;;;5011800;28;20624;-46
2021/11/14 05:32:30;;;;;;;16.27;14.03;;;13.60;67.60;;;;;;5010932;28;20519;-45
2021/11/14 05:34:56;;;;;;;18.17;15.80;;;13.60;67.40;;;;;;5010849;28;21080;-46
2021/11/14 05:37:22;;;;;;;16.07;14.20;;;13.60;67.40;;;;;;5010721;28;20198;-50
2021/11/14 05:39:47;;;;;;;18.93;15.43;;;13.60;67.40;;;;;;5009828;28;20198;-48
2021/11/14 05:42:13;;;;;;;17.77;14.87;;;13.60;67.40;;;;;;5010236;28;20243;-46
2021/11/14 05:44:39;;;;;;;17.90;16.10;;;13.50;67.60;;;;;;5010701;28;20190;-50
2021/11/14 05:47:05;;;;;;;19.80;15.63;;;13.50;67.60;;;;;;5010434;28;20657;-46
2021/11/14 05:49:30;;;;;;;18.57;16.00;;;13.50;67.70;;;;;;5011146;28;20433;-50
2021/11/14 05:51:56;;;;;;;17.67;15.70;;;13.50;67.60;;;;;;5010136;28;20248;-50
2021/11/14 05:54:22;;;;;;;17.70;14.70;;;13.50;67.60;;;;;;5010821;28;20792;-49
2021/11/14 05:56:48;;;;;;;18.40;15.83;;;13.60;67.70;;;;;;5010431;28;20562;-49
2021/11/14 06:01:58;;;;;;;18.33;15.57;;;13.60;67.60;;;;;;5010507;28;20488;-48
2021/11/14 06:06:49;;;;;;;16.13;14.53;;;13.60;67.70;;;;;;5008715;28;20425;-50
2021/11/14 06:09:15;;;;;;;16.40;14.60;;;13.60;67.60;;;;;;5010524;28;20689;-47
2021/11/14 06:11:41;;;;;;;16.33;14.60;;;13.60;67.50;;;;;;5010274;28;20202;-47
2021/11/14 06:14:06;;;;;;;15.53;14.10;;;13.70;67.60;;;;;;5010555;28;20267;-49
2021/11/14 06:16:33;;;;;;;19.50;15.30;;;13.70;67.50;;;;;;5010423;28;20190;-50
2021/11/14 06:18:58;;;;;;;14.67;13.07;;;13.60;67.40;;;;;;5010737;28;20728;-48
2021/11/14 06:21:24;;;;;;;16.90;15.20;;;13.60;67.50;;;;;;5010059;28;20492;-46
2021/11/14 06:23:52;;;;;;;16.13;14.00;;;13.60;67.60;;;;;;5010630;28;20225;-45
2021/11/14 06:26:18;;;;;;;15.77;14.20;;;13.60;67.50;;;;;;5009816;28;20436;-46
2021/11/14 06:28:44;;;;;;;16.17;14.40;;;13.60;67.50;;;;;;5010625;28;20425;-45
2021/11/14 06:31:10;;;;;;;14.47;12.97;;;13.60;67.50;;;;;;5009983;28;20448;-45
2021/11/14 06:33:35;;;;;;;17.90;14.00;;;13.60;67.40;;;;;;5009117;28;20418;-46
2021/11/14 06:36:01;;;;;;;18.70;16.10;;;13.60;67.60;;;;;;5009782;28;20194;-48
2021/11/14 06:38:27;;;;;;;19.90;15.37;;;13.60;67.60;;;;;;5010691;28;20665;-47
2021/11/14 06:40:53;;;;;;;17.60;14.70;;;13.60;67.40;;;;;;5013920;28;20201;-46
2021/11/14 06:43:18;;;;;;;17.70;15.83;;;13.60;67.30;;;;;;5014350;28;20199;-45
2021/11/14 06:45:44;;;;;;;15.63;14.03;;;13.60;67.40;;;;;;5013172;28;20437;-47
2021/11/14 06:48:09;;;;;;;15.03;13.50;;;13.60;67.20;;;;;;5014037;28;20236;-46
2021/11/14 06:50:35;;;;;;;16.17;14.10;;;13.50;67.30;;;;;;5013418;28;20190;-47
2021/11/14 06:53:01;;;;;;;14.50;13.00;;;13.50;67.20;;;;;;5014172;28;20658;-46
2021/11/14 06:55:27;;;;;;;16.20;14.47;;;13.40;67.10;;;;;;5012979;28;20200;-46
2021/11/14 06:57:52;;;;;;;15.60;14.00;;;13.40;67.40;;;;;;5013983;28;20276;-46
2021/11/14 07:00:22;;;;;;;17.17;14.90;;;13.40;67.40;;;;;;5011554;28;20206;-45
2021/11/14 07:02:48;;;;;;;15.90;14.27;;;13.40;67.30;;;;;;5013727;28;20259;-46
2021/11/14 07:05:14;;;;;;;15.93;14.33;;;13.40;66.90;;;;;;5012977;28;20901;-46
2021/11/14 07:07:41;;;;;;;15.80;13.70;;;13.40;66.60;;;;;;5013651;28;20197;-47
2021/11/14 07:10:08;;;;;;;18.00;14.80;;;13.40;66.60;;;;;;5013335;28;20439;-46
2021/11/14 07:12:35;;;;;;;16.90;14.60;;;13.50;66.70;;;;;;5013495;28;20428;-47
2021/11/14 07:15:01;;;;;;;16.03;13.60;;;13.40;66.70;;;;;;5013319;28;20432;-45
2021/11/14 07:17:26;;;;;;;16.77;14.97;;;13.40;66.90;;;;;;5012807;28;20839;-49
2021/11/14 07:19:53;;;;;;;15.63;13.00;;;13.30;67.40;;;;;;5013940;28;20526;-46
2021/11/14 07:22:19;;;;;;;15.57;13.63;;;13.20;67.70;;;;;;5012879;28;20272;-45
2021/11/14 07:24:46;;;;;;;15.27;13.33;;;13.20;67.70;;;;;;5013185;28;20431;-45
2021/11/14 07:27:12;;;;;;;16.03;13.83;;;13.30;67.70;;;;;;5011036;28;20484;-46
2021/11/14 07:29:38;;;;;;;14.53;13.00;;;13.30;67.50;;;;;;5011982;28;20436;-45
2021/11/14 07:32:04;;;;;;;15.70;13.07;;;13.30;67.50;;;;;;5013132;28;20439;-50
2021/11/14 07:34:29;;;;;;;14.63;13.13;;;13.40;67.60;;;;;;5013427;28;20182;-46
2021/11/14 07:36:55;;;;;;;15.03;13.43;;;13.40;67.40;;;;;;5011189;28;20429;-47
2021/11/14 07:39:21;;;;;;;15.27;12.83;;;13.50;67.50;;;;;;5013236;28;20213;-45
2021/11/14 07:41:46;;;;;;;14.17;12.67;;;13.50;67.30;;;;;;5012555;28;20225;-46
2021/11/14 07:44:12;;;;;;;15.17;13.73;;;13.60;67.10;;;;;;5012671;28;20216;-47
2021/11/14 07:46:38;;;;;;;14.20;12.80;;;13.60;66.90;;;;;;5012400;28;20198;-45
2021/11/14 07:49:04;;;;;;;15.30;13.53;;;13.60;66.80;;;;;;5013047;28;20480;-47
2021/11/14 07:51:30;;;;;;;14.93;13.40;;;13.60;66.90;;;;;;5011995;28;20539;-50
2021/11/14 07:53:58;;;;;;;15.10;13.60;;;13.60;66.90;;;;;;4993178;28;20503;-45
2021/11/14 07:56:24;;;;;;;13.43;12.03;;;13.50;67.40;;;;;;5012009;28;20241;-47
2021/11/14 07:58:49;;;;;;;15.07;13.10;;;13.40;67.40;;;;;;5013019;28;20512;-48
2021/11/14 08:01:15;;;;;;;15.13;13.63;;;13.40;67.00;;;;;;5012149;28;20230;-45
2021/11/14 08:03:41;;;;;;;16.37;14.67;;;13.40;67.20;;;;;;5012701;28;20709;-46
2021/11/14 08:06:07;;;;;;;16.20;14.40;;;13.40;67.20;;;;;;5011690;28;20260;-47
2021/11/14 08:08:32;;;;;;;16.63;14.83;;;13.50;67.20;;;;;;5012692;28;20241;-47
2021/11/14 08:10:59;;;;;;;18.80;14.93;;;13.60;67.20;;;;;;5011606;28;20919;-47
2021/11/14 08:13:24;;;;;;;15.77;14.07;;;13.60;67.20;;;;;;5012458;28;20202;-46
2021/11/14 08:15:50;;;;;;;17.17;15.37;;;13.50;67.10;;;;;;5011486;28;20432;-46
2021/11/14 08:18:17;;;;;;;15.60;13.90;;;13.30;67.50;;;;;;5012193;28;20194;-47
2021/11/14 08:20:43;;;;;;;17.77;15.70;;;13.10;68.60;;;;;;5009837;28;20483;-47
2021/11/14 08:23:09;;;;;;;17.10;15.10;;;12.90;69.10;;;;;;5012437;28;20424;-46
2021/11/14 08:25:36;;;;;;;16.50;14.27;;;12.90;70.10;;;;;;5011216;28;20865;-46
2021/11/14 08:28:02;;;;;;;17.37;15.50;;;12.60;69.60;;;;;;5012127;28;20638;-46
2021/11/14 08:30:27;;;;;;;20.70;15.93;;;12.30;72.00;;;;;;5011671;28;20452;-49
2021/11/14 08:32:53;;;;;;;18.10;15.67;;;12.20;72.40;;;;;;5012210;28;20429;-46
2021/11/14 08:35:21;;;;;;;22.20;17.97;;;12.50;72.50;;;;;;5011074;28;20185;-50
2021/11/14 08:37:48;;;;;;;18.47;16.53;;;12.60;72.00;;;;;;5011788;28;20767;-45
2021/11/14 08:40:16;;;;;;;17.40;14.63;;;12.40;72.70;;;;;;5011385;28;20462;-46
2021/11/14 08:42:42;;;;;;;17.60;15.50;;;12.60;72.20;;;;;;4994116;28;20484;-46
2021/11/14 08:45:09;;;;;;;16.63;14.77;;;12.90;71.30;;;;;;5010533;28;20793;-45
2021/11/14 08:47:34;;;;;;;18.13;14.83;;;13.20;70.40;;;;;;5011224;28;20851;-46
2021/11/14 08:50:00;;;;;;;18.63;15.53;;;13.30;69.70;;;;;;5011631;28;20520;-46
2021/11/14 08:52:28;;;;;;;18.33;15.67;;;13.50;69.40;;;;;;5011273;28;20198;-46
2021/11/14 08:54:53;;;;;;;16.70;14.90;;;13.60;69.00;;;;;;5011222;28;20764;-45
2021/11/14 08:57:19;;;;;;;16.53;14.83;;;13.70;68.80;;;;;;5011185;28;20515;-50
2021/11/14 08:59:47;;;;;;;16.20;14.40;;;13.70;68.30;;;;;;5011384;28;20557;-50
2021/11/14 09:02:12;;;;;;;18.20;15.70;;;13.40;68.80;;;;;;5010333;28;20499;-49
2021/11/14 09:04:38;;;;;;;16.50;14.80;;;13.40;70.20;;;;;;5011216;28;20433;-48
2021/11/14 09:07:05;;;;;;;15.87;13.97;;;13.30;69.50;;;;;;5011260;28;20212;-49
2021/11/14 09:09:32;;;;;;;17.87;15.33;;;13.20;70.40;;;;;;5011345;28;20229;-49
2021/11/14 09:11:58;;;;;;;19.93;15.70;;;13.40;70.30;;;;;;5010113;28;20436;-47
2021/11/14 09:14:24;;;;;;;17.23;14.97;;;13.40;69.80;;;;;;5010845;28;20430;-48
2021/11/14 09:16:51;;;;;;;16.73;13.90;;;13.40;70.10;;;;;;5011013;28;20194;-49
2021/11/14 09:19:17;;;;;;;20.30;15.27;;;13.50;69.60;;;;;;4993700;28;20507;-49
2021/11/14 09:21:43;;;;;;;16.30;14.10;;;13.50;69.60;;;;;;5010907;28;20954;-49
2021/11/14 09:24:09;;;;;;;17.90;15.37;;;13.70;69.60;;;;;;5009880;28;20317;-46
2021/11/14 09:26:35;;;;;;;17.77;15.47;;;13.90;68.80;;;;;;5010476;28;20535;-47
2021/11/14 09:29:01;;;;;;;17.60;15.80;;;13.70;68.50;;;;;;5011352;28;20296;-49
2021/11/14 09:31:26;;;;;;;18.77;15.17;;;13.70;69.10;;;;;;5010806;28;20800;-50
2021/11/14 09:33:54;;;;;;;17.37;14.67;;;13.70;68.50;;;;;;5010771;28;20260;-47
2021/11/14 09:36:21;;;;;;;16.97;14.90;;;13.70;69.20;;;;;;5010293;28;20194;-49
2021/11/14 09:38:47;;;;;;;22.60;14.90;;;13.60;69.00;;;;;;5009818;28;20476;-49
2021/11/14 09:41:14;;;;;;;18.70;16.30;;;13.60;69.50;;;;;;5010751;28;20480;-46
2021/11/14 09:43:39;;;;;;;20.03;15.43;;;13.40;69.50;;;;;;5010920;28;20417;-47
2021/11/14 09:46:06;;;;;;;17.50;14.20;;;13.20;69.90;;;;;;5010662;28;20429;-46
2021/11/14 09:48:31;;;;;;;19.93;15.30;;;13.10;71.10;;;;;;4993245;28;20219;-49
2021/11/14 09:50:58;;;;;;;23.00;16.00;;;13.10;70.70;;;;;;5010193;28;20797;-50
2021/11/14 09:53:34;;;;;;;20.57;15.03;;;13.10;71.10;;;;;;5010908;28;20260;-48
2021/11/14 09:56:02;;;;;;;18.63;15.27;;;13.40;70.00;;;;;;5010376;28;20427;-50
2021/11/14 09:58:27;;;;;;;18.00;15.40;;;13.60;70.00;;;;;;5011112;28;20429;-48
2021/11/14 10:00:54;;;;;;;19.03;15.63;;;13.70;69.10;;;;;;5010279;28;20889;-50
2021/11/14 10:03:20;;;;;;;21.37;16.10;;;13.80;68.80;;;;;;5010873;28;20193;-48
2021/11/14 10:05:49;;;;;;;18.37;15.90;;;14.10;68.00;;;;;;5008433;28;20433;-49
2021/11/14 10:08:16;;;;;;;20.93;15.90;;;14.40;67.40;;;;;;5010595;28;20469;-50
2021/11/14 10:10:51;;;;;;;20.13;14.47;;;14.60;66.90;;;;;;5010303;28;20413;-50
2021/11/14 10:13:17;;;;;;;19.00;14.70;;;14.80;66.60;;;;;;5010906;28;20432;-48
2021/11/14 10:15:44;;;;;;;18.53;14.10;;;14.70;65.70;;;;;;5013956;28;20427;-50
2021/11/14 10:18:12;;;;;;;16.00;12.87;;;14.80;65.50;;;;;;5014418;28;20676;-47
2021/11/14 10:20:38;;;;;;;17.70;13.03;;;14.90;64.70;;;;;;5013814;28;20433;-47
2021/11/14 10:23:12;;;;;;;17.37;13.30;;;14.80;64.10;;;;;;5014651;28;20487;-47
2021/11/14 10:25:39;;;;;;;19.63;16.57;;;14.70;64.70;;;;;;5013270;28;20535;-46
2021/11/14 10:28:05;;;;;;;19.10;16.63;;;14.70;64.90;;;;;;5014424;28;20516;-46
2021/11/14 10:30:38;;;;;;;19.30;14.57;;;14.30;66.00;;;;;;5014043;28;20471;-49
2021/11/14 10:33:07;;;;;;;20.40;15.70;;;14.10;66.90;;;;;;5013280;28;20444;-49
2021/11/14 10:35:34;;;;;;;17.17;14.37;;;14.30;67.70;;;;;;5013487;28;20509;-49
2021/11/14 10:38:06;;;;;;;18.60;14.40;;;14.50;67.00;;;;;;5014362;28;20421;-48
2021/11/14 10:40:37;;;;;;;17.90;16.00;;;14.80;66.30;;;;;;5013771;28;20507;-46
2021/11/14 10:43:06;;;;;;;21.20;15.67;;;15.00;66.30;;;;;;5014357;28;20528;-45
2021/11/14 10:45:35;;;;;;;16.57;14.07;;;14.80;65.40;;;;;;5013353;28;20428;-46
2021/11/14 10:48:07;;;;;;;20.57;15.47;;;14.70;65.80;;;;;;5014053;28;20501;-45
2021/11/14 10:50:36;;;;;;;18.70;15.50;;;14.50;66.20;;;;;;5014011;28;20479;-46
2021/11/14 10:53:06;;;;;;;17.10;13.33;;;14.70;66.30;;;;;;5014069;28;20504;-46
2021/11/14 10:55:40;;;;;;;16.30;12.70;;;14.80;65.90;;;;;;5013387;28;20521;-46
2021/11/14 10:58:07;;;;;;;23.10;16.20;;;14.90;65.00;;;;;;5013743;28;20432;-49
2021/11/14 11:00:33;;;;;;;19.93;15.13;;;15.00;65.10;;;;;;5009908;28;20576;-45
2021/11/14 11:03:02;;;;;;;17.03;13.10;;;15.00;64.70;;;;;;5014041;28;20441;-46
2021/11/14 11:05:29;;;;;;;18.10;13.50;;;14.80;64.60;;;;;;5012963;28;20429;-46
2021/11/14 11:08:02;;;;;;;18.63;14.27;;;14.70;65.40;;;;;;5013892;28;20483;-49
2021/11/14 11:10:44;;;;;;;17.30;13.30;;;14.90;64.90;;;;;;5013116;28;20433;-49
2021/11/14 11:13:16;;;;;;;16.60;12.07;;;15.00;64.90;;;;;;5013704;28;20532;-49
2021/11/14 11:15:48;;;;;;;15.50;12.50;;;15.10;64.30;;;;;;5012757;28;20421;-45
2021/11/14 11:18:19;;;;;;;16.17;11.80;;;15.00;63.70;;;;;;5013740;28;20949;-45
2021/11/14 11:20:49;;;;;;;17.47;13.17;;;14.80;63.70;;;;;;5012692;28;20429;-46
2021/11/14 11:23:17;;;;;;;20.53;12.93;;;14.90;64.50;;;;;;5013595;28;20472;-48
2021/11/14 11:25:42;;;;;;;17.90;13.73;;;15.00;64.50;;;;;;5009800;28;20443;-45
2021/11/14 11:28:17;;;;;;;19.73;13.73;;;15.00;63.60;;;;;;5013537;28;20433;-49
2021/11/14 11:30:47;;;;;;;19.77;13.33;;;15.00;64.10;;;;;;5012718;28;20239;-45
2021/11/14 11:33:21;;;;;;;19.23;13.13;;;14.80;64.00;;;;;;5013417;28;20512;-46
2021/11/14 11:35:51;;;;;;;16.90;12.67;;;14.80;63.50;;;;;;5012386;28;20491;-46
2021/11/14 11:38:19;;;;;;;17.80;13.10;;;14.90;63.90;;;;;;5013491;28;20432;-48
2021/11/14 11:40:45;;;;;;;18.43;13.27;;;15.10;63.80;;;;;;5012703;28;20444;-45
2021/11/14 11:43:11;;;;;;;16.40;11.80;;;15.20;63.60;;;;;;5012923;28;20459;-45
2021/11/14 11:45:41;;;;;;;17.67;13.10;;;15.20;63.00;;;;;;5012309;28;20421;-46
2021/11/14 11:48:25;;;;;;;18.40;13.27;;;15.30;62.80;;;;;;5013037;28;20429;-45
2021/11/14 11:51:03;;;;;;;16.90;13.70;;;15.40;63.30;;;;;;5012241;28;20421;-48
2021/11/14 11:53:31;;;;;;;17.50;12.70;;;15.50;62.80;;;;;;5010935;28;20452;-46
2021/11/14 11:56:14;;;;;;;17.67;13.10;;;15.60;62.50;;;;;;5011282;28;20425;-45
2021/11/14 11:58:49;;;;;;;17.63;12.00;;;15.70;62.20;;;;;;5012897;28;20494;-45
2021/11/14 12:01:34;;;;;;;14.90;12.47;;;15.80;61.90;;;;;;5012006;28;20496;-45
2021/11/14 12:04:39;;;;;;;18.97;13.50;;;15.60;61.80;;;;;;5012519;28;20515;-45
2021/11/14 12:07:05;;;;;;;18.23;11.53;;;15.30;61.90;;;;;;4980756;28;20998;-46
2021/11/14 12:10:14;;;;;;;17.23;12.80;;;15.10;62.30;;;;;;5012607;28;20483;-45
2021/11/14 12:12:55;;;;;;;21.47;13.13;;;15.00;63.40;;;;;;5005588;28;20194;-45
2021/11/14 12:15:33;;;;;;;19.60;14.03;;;15.10;64.10;;;;;;5011502;28;20491;-47
2021/11/14 12:18:00;;;;;;;18.97;12.37;;;15.30;63.30;;;;;;5012307;28;20515;-50
2021/11/14 12:20:53;;;;;;;18.20;13.03;;;15.40;62.50;;;;;;5010394;28;20433;-50
2021/11/14 12:23:27;;;;;;;16.57;12.67;;;15.50;62.20;;;;;;5010565;28;20484;-47
2021/11/14 12:25:59;;;;;;;16.07;12.50;;;15.50;61.40;;;;;;5011478;28;20433;-48
2021/11/14 12:28:33;;;;;;;17.37;13.10;;;15.40;61.30;;;;;;5012501;28;20433;-47
2021/11/14 12:31:06;;;;;;;20.93;13.73;;;15.50;61.30;;;;;;5011794;28;20515;-47
2021/11/14 12:33:37;;;;;;;16.50;13.20;;;15.60;61.60;;;;;;5011777;28;20448;-50
2021/11/14 12:36:20;;;;;;;16.27;12.67;;;15.50;61.40;;;;;;5011796;28;20429;-49